sensor_id;sensor_type;location;lat;lon;timestamp;P1;durP1;ratioP1;P2;durP2;ratioP2
72358;SDS011;60317;48.880;-0.862;2022-07-10T00:01:17;2.00;;;1.70;;
72358;SDS011;60317;48.880;-0.862;2022-07-10T00:03:44;3.90;;;1.60;;
72358;SDS011;60317;48.880;-0.862;2022-07-10T00:06:10;1.80;;;1.50;;
72358;SDS011;60317;48.880;-0.862;2022-07-10T00:08:38;2.55;;;1.80;;
72358;SDS011;60317;48.880;-0.862;2022-07-10T00:11:06;2.42;;;2.00;;
72358;SDS011;60317;48.880;-0.862;2022-07-10T00:13:32;2.83;;;2.00;;
72358;SDS011;60317;48.880;-0.862;2022-07-10T00:15:58;5.57;;;3.38;;
72358;SDS011;60317;48.880;-0.862;2022-07-10T00:18:25;8.77;;;3.90;;
72358;SDS011;60317;48.880;-0.862;2022-07-10T00:20:52;5.65;;;3.55;;
72358;SDS011;60317;48.880;-0.862;2022-07-10T00:23:18;5.25;;;3.30;;
72358;SDS011;60317;48.880;-0.862;2022-07-10T00:25:46;6.47;;;3.33;;
72358;SDS011;60317;48.880;-0.862;2022-07-10T00:28:13;5.72;;;2.95;;
72358;SDS011;60317;48.880;-0.862;2022-07-10T00:30:39;4.75;;;2.88;;
72358;SDS011;60317;48.880;-0.862;2022-07-10T00:33:06;3.95;;;2.80;;
72358;SDS011;60317;48.880;-0.862;2022-07-10T00:35:33;4.75;;;2.80;;
72358;SDS011;60317;48.880;-0.862;2022-07-10T00:37:59;4.10;;;2.83;;
72358;SDS011;60317;48.880;-0.862;2022-07-10T00:40:26;4.93;;;2.80;;
72358;SDS011;60317;48.880;-0.862;2022-07-10T00:42:54;5.10;;;2.92;;
72358;SDS011;60317;48.880;-0.862;2022-07-10T00:45:20;4.45;;;2.40;;
72358;SDS011;60317;48.880;-0.862;2022-07-10T00:47:47;4.18;;;2.70;;
72358;SDS011;60317;48.880;-0.862;2022-07-10T00:50:13;3.10;;;2.30;;
72358;SDS011;60317;48.880;-0.862;2022-07-10T00:52:40;3.67;;;2.47;;
72358;SDS011;60317;48.880;-0.862;2022-07-10T00:55:07;4.38;;;2.60;;
72358;SDS011;60317;48.880;-0.862;2022-07-10T00:57:35;3.42;;;2.40;;
72358;SDS011;60317;48.880;-0.862;2022-07-10T01:00:04;3.20;;;2.38;;
72358;SDS011;60317;48.880;-0.862;2022-07-10T01:02:31;3.40;;;2.40;;
72358;SDS011;60317;48.880;-0.862;2022-07-10T01:04:58;3.28;;;2.20;;
72358;SDS011;60317;48.880;-0.862;2022-07-10T01:07:24;3.25;;;2.03;;
72358;SDS011;60317;48.880;-0.862;2022-07-10T01:09:51;4.35;;;2.28;;
72358;SDS011;60317;48.880;-0.862;2022-07-10T01:12:18;3.60;;;2.10;;
72358;SDS011;60317;48.880;-0.862;2022-07-10T01:14:46;3.65;;;2.20;;
72358;SDS011;60317;48.880;-0.862;2022-07-10T01:17:14;4.47;;;2.30;;
72358;SDS011;60317;48.880;-0.862;2022-07-10T01:19:40;3.85;;;2.45;;
72358;SDS011;60317;48.880;-0.862;2022-07-10T01:22:08;3.47;;;2.30;;
72358;SDS011;60317;48.880;-0.862;2022-07-10T01:24:35;2.15;;;1.70;;
72358;SDS011;60317;48.880;-0.862;2022-07-10T01:27:01;2.85;;;2.05;;
72358;SDS011;60317;48.880;-0.862;2022-07-10T01:29:28;4.38;;;2.38;;
72358;SDS011;60317;48.880;-0.862;2022-07-10T01:31:55;5.03;;;1.90;;
72358;SDS011;60317;48.880;-0.862;2022-07-10T01:34:22;2.95;;;1.63;;
72358;SDS011;60317;48.880;-0.862;2022-07-10T01:36:49;2.28;;;1.73;;
72358;SDS011;60317;48.880;-0.862;2022-07-10T01:39:17;3.05;;;2.00;;
72358;SDS011;60317;48.880;-0.862;2022-07-10T01:41:44;2.78;;;2.00;;
72358;SDS011;60317;48.880;-0.862;2022-07-10T01:44:11;4.25;;;1.80;;
72358;SDS011;60317;48.880;-0.862;2022-07-10T01:46:42;2.53;;;1.95;;
72358;SDS011;60317;48.880;-0.862;2022-07-10T01:49:10;4.15;;;1.80;;
72358;SDS011;60317;48.880;-0.862;2022-07-10T01:51:36;2.92;;;1.88;;
72358;SDS011;60317;48.880;-0.862;2022-07-10T01:54:03;3.35;;;1.83;;
72358;SDS011;60317;48.880;-0.862;2022-07-10T01:56:30;2.63;;;1.75;;
72358;SDS011;60317;48.880;-0.862;2022-07-10T01:58:57;2.92;;;1.30;;
72358;SDS011;60317;48.880;-0.862;2022-07-10T02:01:24;2.25;;;1.50;;
72358;SDS011;60317;48.880;-0.862;2022-07-10T02:03:50;2.88;;;1.80;;
72358;SDS011;60317;48.880;-0.862;2022-07-10T02:06:17;2.00;;;1.60;;
72358;SDS011;60317;48.880;-0.862;2022-07-10T02:08:43;2.78;;;1.60;;
72358;SDS011;60317;48.880;-0.862;2022-07-10T02:11:10;2.13;;;1.65;;
72358;SDS011;60317;48.880;-0.862;2022-07-10T02:13:38;2.03;;;1.58;;
72358;SDS011;60317;48.880;-0.862;2022-07-10T02:16:05;2.03;;;1.70;;
72358;SDS011;60317;48.880;-0.862;2022-07-10T02:18:32;2.67;;;1.60;;
72358;SDS011;60317;48.880;-0.862;2022-07-10T02:20:58;2.35;;;1.60;;
72358;SDS011;60317;48.880;-0.862;2022-07-10T02:23:25;1.95;;;1.50;;
72358;SDS011;60317;48.880;-0.862;2022-07-10T02:25:51;1.70;;;1.50;;
72358;SDS011;60317;48.880;-0.862;2022-07-10T02:28:18;2.05;;;1.60;;
72358;SDS011;60317;48.880;-0.862;2022-07-10T02:30:45;1.85;;;1.45;;
72358;SDS011;60317;48.880;-0.862;2022-07-10T02:33:12;1.67;;;1.33;;
72358;SDS011;60317;48.880;-0.862;2022-07-10T02:35:38;2.28;;;1.60;;
72358;SDS011;60317;48.880;-0.862;2022-07-10T02:38:05;3.83;;;1.50;;
72358;SDS011;60317;48.880;-0.862;2022-07-10T02:40:32;2.47;;;1.48;;
72358;SDS011;60317;48.880;-0.862;2022-07-10T02:42:58;1.50;;;1.40;;
72358;SDS011;60317;48.880;-0.862;2022-07-10T02:45:25;2.05;;;1.42;;
72358;SDS011;60317;48.880;-0.862;2022-07-10T02:47:52;1.80;;;1.50;;
72358;SDS011;60317;48.880;-0.862;2022-07-10T02:50:19;2.50;;;1.50;;
72358;SDS011;60317;48.880;-0.862;2022-07-10T02:52:45;1.60;;;1.35;;
72358;SDS011;60317;48.880;-0.862;2022-07-10T02:55:12;3.13;;;1.58;;
72358;SDS011;60317;48.880;-0.862;2022-07-10T02:57:38;2.50;;;1.60;;
72358;SDS011;60317;48.880;-0.862;2022-07-10T03:00:05;2.20;;;1.50;;
72358;SDS011;60317;48.880;-0.862;2022-07-10T03:02:32;1.90;;;1.70;;
72358;SDS011;60317;48.880;-0.862;2022-07-10T03:05:00;3.33;;;1.60;;
72358;SDS011;60317;48.880;-0.862;2022-07-10T03:07:27;1.83;;;1.48;;
72358;SDS011;60317;48.880;-0.862;2022-07-10T03:09:53;2.08;;;1.60;;
72358;SDS011;60317;48.880;-0.862;2022-07-10T03:12:20;2.17;;;1.70;;
72358;SDS011;60317;48.880;-0.862;2022-07-10T03:14:46;1.98;;;1.30;;
72358;SDS011;60317;48.880;-0.862;2022-07-10T03:17:13;2.22;;;1.60;;
72358;SDS011;60317;48.880;-0.862;2022-07-10T03:19:39;2.75;;;1.50;;
72358;SDS011;60317;48.880;-0.862;2022-07-10T03:22:07;1.38;;;1.27;;
72358;SDS011;60317;48.880;-0.862;2022-07-10T03:24:33;1.60;;;1.40;;
72358;SDS011;60317;48.880;-0.862;2022-07-10T03:27:00;1.98;;;1.50;;
72358;SDS011;60317;48.880;-0.862;2022-07-10T03:29:26;2.28;;;1.60;;
72358;SDS011;60317;48.880;-0.862;2022-07-10T03:31:53;2.28;;;1.60;;
72358;SDS011;60317;48.880;-0.862;2022-07-10T03:34:19;1.75;;;1.52;;
72358;SDS011;60317;48.880;-0.862;2022-07-10T03:36:46;3.35;;;1.45;;
72358;SDS011;60317;48.880;-0.862;2022-07-10T03:39:14;2.55;;;1.45;;
72358;SDS011;60317;48.880;-0.862;2022-07-10T03:41:40;3.80;;;1.52;;
72358;SDS011;60317;48.880;-0.862;2022-07-10T03:44:06;2.15;;;1.40;;
72358;SDS011;60317;48.880;-0.862;2022-07-10T03:46:33;4.30;;;1.70;;
72358;SDS011;60317;48.880;-0.862;2022-07-10T03:49:00;1.60;;;1.48;;
72358;SDS011;60317;48.880;-0.862;2022-07-10T03:51:26;2.83;;;1.52;;
72358;SDS011;60317;48.880;-0.862;2022-07-10T03:53:53;2.90;;;1.45;;
72358;SDS011;60317;48.880;-0.862;2022-07-10T03:56:20;3.30;;;1.40;;
72358;SDS011;60317;48.880;-0.862;2022-07-10T03:58:47;2.38;;;1.50;;
72358;SDS011;60317;48.880;-0.862;2022-07-10T04:01:13;2.17;;;1.42;;
72358;SDS011;60317;48.880;-0.862;2022-07-10T04:03:40;2.15;;;1.42;;
72358;SDS011;60317;48.880;-0.862;2022-07-10T04:06:06;2.90;;;1.48;;
72358;SDS011;60317;48.880;-0.862;2022-07-10T04:08:33;1.83;;;1.50;;
72358;SDS011;60317;48.880;-0.862;2022-07-10T04:10:59;1.90;;;1.40;;
72358;SDS011;60317;48.880;-0.862;2022-07-10T04:13:27;2.17;;;1.40;;
72358;SDS011;60317;48.880;-0.862;2022-07-10T04:15:53;2.05;;;1.52;;
72358;SDS011;60317;48.880;-0.862;2022-07-10T04:18:20;2.83;;;1.50;;
72358;SDS011;60317;48.880;-0.862;2022-07-10T04:20:46;2.25;;;1.58;;
72358;SDS011;60317;48.880;-0.862;2022-07-10T04:23:13;1.80;;;1.40;;
72358;SDS011;60317;48.880;-0.862;2022-07-10T04:25:39;1.52;;;1.30;;
72358;SDS011;60317;48.880;-0.862;2022-07-10T04:28:06;1.88;;;1.45;;
72358;SDS011;60317;48.880;-0.862;2022-07-10T04:30:34;1.40;;;1.30;;
72358;SDS011;60317;48.880;-0.862;2022-07-10T04:33:00;1.92;;;1.40;;
72358;SDS011;60317;48.880;-0.862;2022-07-10T04:35:27;1.98;;;1.48;;
72358;SDS011;60317;48.880;-0.862;2022-07-10T04:37:53;3.08;;;1.60;;
72358;SDS011;60317;48.880;-0.862;2022-07-10T04:40:20;3.13;;;1.38;;
72358;SDS011;60317;48.880;-0.862;2022-07-10T04:42:46;1.70;;;1.50;;
72358;SDS011;60317;48.880;-0.862;2022-07-10T04:45:12;6.15;;;1.60;;
72358;SDS011;60317;48.880;-0.862;2022-07-10T04:47:40;1.58;;;1.38;;
72358;SDS011;60317;48.880;-0.862;2022-07-10T04:50:07;1.70;;;1.38;;
72358;SDS011;60317;48.880;-0.862;2022-07-10T04:52:34;6.38;;;1.58;;
72358;SDS011;60317;48.880;-0.862;2022-07-10T04:55:01;2.60;;;1.48;;
72358;SDS011;60317;48.880;-0.862;2022-07-10T04:57:27;3.50;;;1.20;;
72358;SDS011;60317;48.880;-0.862;2022-07-10T04:59:54;3.35;;;1.40;;
72358;SDS011;60317;48.880;-0.862;2022-07-10T05:02:20;1.65;;;1.10;;
72358;SDS011;60317;48.880;-0.862;2022-07-10T05:04:48;2.08;;;1.25;;
72358;SDS011;60317;48.880;-0.862;2022-07-10T05:07:15;2.13;;;1.17;;
72358;SDS011;60317;48.880;-0.862;2022-07-10T05:09:41;1.60;;;1.20;;
72358;SDS011;60317;48.880;-0.862;2022-07-10T05:12:08;5.50;;;1.77;;
72358;SDS011;60317;48.880;-0.862;2022-07-10T05:14:34;3.03;;;1.38;;
72358;SDS011;60317;48.880;-0.862;2022-07-10T05:17:01;2.17;;;1.17;;
72358;SDS011;60317;48.880;-0.862;2022-07-10T05:19:27;4.65;;;1.30;;
72358;SDS011;60317;48.880;-0.862;2022-07-10T05:21:55;6.78;;;1.65;;
72358;SDS011;60317;48.880;-0.862;2022-07-10T05:24:22;3.47;;;1.40;;
72358;SDS011;60317;48.880;-0.862;2022-07-10T05:26:48;2.15;;;1.77;;
72358;SDS011;60317;48.880;-0.862;2022-07-10T05:29:15;2.42;;;1.73;;
72358;SDS011;60317;48.880;-0.862;2022-07-10T05:31:41;2.40;;;1.80;;
72358;SDS011;60317;48.880;-0.862;2022-07-10T05:34:08;3.50;;;1.95;;
72358;SDS011;60317;48.880;-0.862;2022-07-10T05:36:34;2.33;;;1.60;;
72358;SDS011;60317;48.880;-0.862;2022-07-10T05:39:02;6.85;;;1.70;;
72358;SDS011;60317;48.880;-0.862;2022-07-10T05:41:28;1.50;;;1.40;;
72358;SDS011;60317;48.880;-0.862;2022-07-10T05:43:55;2.75;;;1.52;;
72358;SDS011;60317;48.880;-0.862;2022-07-10T05:46:21;3.17;;;1.60;;
72358;SDS011;60317;48.880;-0.862;2022-07-10T05:48:48;1.60;;;1.50;;
72358;SDS011;60317;48.880;-0.862;2022-07-10T05:51:14;1.50;;;1.40;;
72358;SDS011;60317;48.880;-0.862;2022-07-10T05:53:56;1.40;;;1.20;;
72358;SDS011;60317;48.880;-0.862;2022-07-10T05:56:24;2.20;;;1.38;;
72358;SDS011;60317;48.880;-0.862;2022-07-10T05:58:51;2.03;;;1.52;;
72358;SDS011;60317;48.880;-0.862;2022-07-10T06:01:17;2.10;;;1.40;;
72358;SDS011;60317;48.880;-0.862;2022-07-10T06:03:44;1.63;;;1.33;;
72358;SDS011;60317;48.880;-0.862;2022-07-10T06:06:10;2.03;;;1.35;;
72358;SDS011;60317;48.880;-0.862;2022-07-10T06:08:37;2.17;;;1.30;;
72358;SDS011;60317;48.880;-0.862;2022-07-10T06:11:04;1.83;;;1.48;;
72358;SDS011;60317;48.880;-0.862;2022-07-10T06:13:32;3.90;;;1.50;;
72358;SDS011;60317;48.880;-0.862;2022-07-10T06:15:58;1.88;;;1.30;;
72358;SDS011;60317;48.880;-0.862;2022-07-10T06:18:25;1.80;;;1.20;;
72358;SDS011;60317;48.880;-0.862;2022-07-10T06:20:51;1.70;;;1.40;;
72358;SDS011;60317;48.880;-0.862;2022-07-10T06:23:18;1.70;;;1.20;;
72358;SDS011;60317;48.880;-0.862;2022-07-10T06:25:44;2.50;;;1.30;;
72358;SDS011;60317;48.880;-0.862;2022-07-10T06:28:11;2.90;;;1.08;;
72358;SDS011;60317;48.880;-0.862;2022-07-10T06:30:39;4.25;;;1.08;;
72358;SDS011;60317;48.880;-0.862;2022-07-10T06:33:06;1.10;;;1.00;;
72358;SDS011;60317;48.880;-0.862;2022-07-10T06:35:32;1.65;;;1.20;;
72358;SDS011;60317;48.880;-0.862;2022-07-10T06:37:58;1.23;;;1.13;;
72358;SDS011;60317;48.880;-0.862;2022-07-10T06:40:25;1.73;;;1.30;;
72358;SDS011;60317;48.880;-0.862;2022-07-10T06:42:54;1.63;;;1.10;;
72358;SDS011;60317;48.880;-0.862;2022-07-10T06:45:21;1.80;;;1.30;;
72358;SDS011;60317;48.880;-0.862;2022-07-10T06:47:49;3.60;;;1.20;;
72358;SDS011;60317;48.880;-0.862;2022-07-10T06:50:22;1.88;;;1.08;;
72358;SDS011;60317;48.880;-0.862;2022-07-10T06:52:50;2.22;;;1.15;;
72358;SDS011;60317;48.880;-0.862;2022-07-10T06:55:18;0.90;;;0.90;;
72358;SDS011;60317;48.880;-0.862;2022-07-10T06:57:45;2.28;;;1.00;;
72358;SDS011;60317;48.880;-0.862;2022-07-10T07:00:11;1.50;;;1.00;;
72358;SDS011;60317;48.880;-0.862;2022-07-10T07:02:38;1.60;;;0.95;;
72358;SDS011;60317;48.880;-0.862;2022-07-10T07:05:07;1.20;;;0.90;;
72358;SDS011;60317;48.880;-0.862;2022-07-10T07:07:34;2.08;;;0.77;;
72358;SDS011;60317;48.880;-0.862;2022-07-10T07:10:00;1.00;;;0.98;;
72358;SDS011;60317;48.880;-0.862;2022-07-10T07:12:27;2.13;;;1.08;;
72358;SDS011;60317;48.880;-0.862;2022-07-10T07:14:53;5.55;;;0.90;;
72358;SDS011;60317;48.880;-0.862;2022-07-10T07:17:20;2.33;;;0.98;;
72358;SDS011;60317;48.880;-0.862;2022-07-10T07:19:47;2.83;;;0.80;;
72358;SDS011;60317;48.880;-0.862;2022-07-10T07:22:15;0.70;;;0.70;;
72358;SDS011;60317;48.880;-0.862;2022-07-10T07:24:41;1.35;;;0.90;;
72358;SDS011;60317;48.880;-0.862;2022-07-10T07:27:08;2.20;;;0.93;;
72358;SDS011;60317;48.880;-0.862;2022-07-10T07:29:34;0.95;;;0.75;;
72358;SDS011;60317;48.880;-0.862;2022-07-10T07:32:01;1.23;;;0.80;;
72358;SDS011;60317;48.880;-0.862;2022-07-10T07:34:28;0.85;;;0.60;;
72358;SDS011;60317;48.880;-0.862;2022-07-10T07:36:54;1.52;;;0.70;;
72358;SDS011;60317;48.880;-0.862;2022-07-10T07:39:22;1.30;;;0.75;;
72358;SDS011;60317;48.880;-0.862;2022-07-10T07:41:48;3.78;;;0.82;;
72358;SDS011;60317;48.880;-0.862;2022-07-10T07:44:15;2.85;;;0.95;;
72358;SDS011;60317;48.880;-0.862;2022-07-10T07:46:42;2.30;;;0.80;;
72358;SDS011;60317;48.880;-0.862;2022-07-10T07:49:08;2.03;;;0.90;;
72358;SDS011;60317;48.880;-0.862;2022-07-10T07:51:35;1.27;;;0.80;;
72358;SDS011;60317;48.880;-0.862;2022-07-10T07:54:01;1.25;;;0.80;;
72358;SDS011;60317;48.880;-0.862;2022-07-10T07:56:29;1.83;;;1.00;;
72358;SDS011;60317;48.880;-0.862;2022-07-10T07:58:56;2.35;;;0.90;;
72358;SDS011;60317;48.880;-0.862;2022-07-10T08:01:22;2.45;;;0.80;;
72358;SDS011;60317;48.880;-0.862;2022-07-10T08:03:49;1.90;;;0.98;;
72358;SDS011;60317;48.880;-0.862;2022-07-10T08:06:33;3.53;;;0.75;;
72358;SDS011;60317;48.880;-0.862;2022-07-10T08:09:00;1.73;;;0.93;;
72358;SDS011;60317;48.880;-0.862;2022-07-10T08:11:26;2.45;;;0.60;;
72358;SDS011;60317;48.880;-0.862;2022-07-10T08:13:54;1.25;;;0.90;;
72358;SDS011;60317;48.880;-0.862;2022-07-10T08:16:21;1.48;;;0.63;;
72358;SDS011;60317;48.880;-0.862;2022-07-10T08:18:47;1.00;;;0.80;;
72358;SDS011;60317;48.880;-0.862;2022-07-10T08:21:14;1.98;;;0.90;;
72358;SDS011;60317;48.880;-0.862;2022-07-10T08:23:40;1.52;;;0.88;;
72358;SDS011;60317;48.880;-0.862;2022-07-10T08:26:07;1.52;;;1.00;;
72358;SDS011;60317;48.880;-0.862;2022-07-10T08:28:33;3.03;;;0.90;;
72358;SDS011;60317;48.880;-0.862;2022-07-10T08:31:01;1.50;;;0.93;;
72358;SDS011;60317;48.880;-0.862;2022-07-10T08:33:28;0.80;;;0.80;;
72358;SDS011;60317;48.880;-0.862;2022-07-10T08:35:54;1.15;;;0.80;;
72358;SDS011;60317;48.880;-0.862;2022-07-10T08:38:41;2.15;;;0.80;;
72358;SDS011;60317;48.880;-0.862;2022-07-10T08:41:08;2.17;;;1.35;;
72358;SDS011;60317;48.880;-0.862;2022-07-10T08:43:38;0.98;;;0.73;;
72358;SDS011;60317;48.880;-0.862;2022-07-10T08:46:07;0.98;;;0.90;;
72358;SDS011;60317;48.880;-0.862;2022-07-10T08:48:36;6.40;;;1.88;;
72358;SDS011;60317;48.880;-0.862;2022-07-10T08:51:05;1.83;;;1.10;;
72358;SDS011;60317;48.880;-0.862;2022-07-10T08:53:35;1.40;;;0.88;;
72358;SDS011;60317;48.880;-0.862;2022-07-10T08:56:05;1.10;;;0.85;;
72358;SDS011;60317;48.880;-0.862;2022-07-10T08:58:32;2.17;;;0.98;;
72358;SDS011;60317;48.880;-0.862;2022-07-10T09:00:59;1.92;;;1.00;;
72358;SDS011;60317;48.880;-0.862;2022-07-10T09:03:26;1.13;;;0.90;;
72358;SDS011;60317;48.880;-0.862;2022-07-10T09:05:55;2.38;;;1.10;;
72358;SDS011;60317;48.880;-0.862;2022-07-10T09:08:22;1.35;;;0.90;;
72358;SDS011;60317;48.880;-0.862;2022-07-10T09:10:49;6.35;;;1.17;;
72358;SDS011;60317;48.880;-0.862;2022-07-10T09:13:16;3.20;;;1.25;;
72358;SDS011;60317;48.880;-0.862;2022-07-10T09:15:48;1.27;;;1.10;;
72358;SDS011;60317;48.880;-0.862;2022-07-10T09:18:18;2.38;;;1.02;;
72358;SDS011;60317;48.880;-0.862;2022-07-10T09:20:50;5.22;;;1.00;;
72358;SDS011;60317;48.880;-0.862;2022-07-10T09:23:17;3.00;;;1.20;;
72358;SDS011;60317;48.880;-0.862;2022-07-10T09:25:45;4.55;;;1.10;;
72358;SDS011;60317;48.880;-0.862;2022-07-10T09:28:12;2.13;;;1.00;;
72358;SDS011;60317;48.880;-0.862;2022-07-10T09:30:39;1.95;;;1.05;;
72358;SDS011;60317;48.880;-0.862;2022-07-10T09:35:56;5.38;;;1.23;;
72358;SDS011;60317;48.880;-0.862;2022-07-10T09:38:24;2.47;;;1.13;;
72358;SDS011;60317;48.880;-0.862;2022-07-10T09:40:51;3.50;;;1.10;;
72358;SDS011;60317;48.880;-0.862;2022-07-10T09:43:17;1.23;;;0.90;;
72358;SDS011;60317;48.880;-0.862;2022-07-10T09:45:44;3.72;;;1.10;;
72358;SDS011;60317;48.880;-0.862;2022-07-10T09:48:10;2.47;;;1.25;;
72358;SDS011;60317;48.880;-0.862;2022-07-10T09:50:37;3.10;;;1.13;;
72358;SDS011;60317;48.880;-0.862;2022-07-10T09:53:05;1.80;;;0.80;;
72358;SDS011;60317;48.880;-0.862;2022-07-10T09:55:33;2.20;;;0.90;;
72358;SDS011;60317;48.880;-0.862;2022-07-10T09:58:01;1.63;;;1.08;;
72358;SDS011;60317;48.880;-0.862;2022-07-10T10:00:29;2.45;;;0.90;;
72358;SDS011;60317;48.880;-0.862;2022-07-10T10:02:57;2.85;;;0.95;;
72358;SDS011;60317;48.880;-0.862;2022-07-10T10:05:28;1.00;;;1.00;;
72358;SDS011;60317;48.880;-0.862;2022-07-10T10:08:00;1.30;;;1.05;;
72358;SDS011;60317;48.880;-0.862;2022-07-10T10:10:31;1.55;;;1.05;;
72358;SDS011;60317;48.880;-0.862;2022-07-10T10:13:00;2.30;;;1.20;;
72358;SDS011;60317;48.880;-0.862;2022-07-10T10:15:29;1.33;;;0.98;;
72358;SDS011;60317;48.880;-0.862;2022-07-10T10:17:57;1.30;;;0.93;;
72358;SDS011;60317;48.880;-0.862;2022-07-10T10:20:25;1.33;;;1.00;;
72358;SDS011;60317;48.880;-0.862;2022-07-10T10:22:52;1.90;;;1.20;;
72358;SDS011;60317;48.880;-0.862;2022-07-10T10:25:21;1.60;;;1.05;;
72358;SDS011;60317;48.880;-0.862;2022-07-10T10:27:51;3.80;;;1.30;;
72358;SDS011;60317;48.880;-0.862;2022-07-10T10:30:18;1.58;;;1.10;;
72358;SDS011;60317;48.880;-0.862;2022-07-10T10:32:45;2.25;;;1.23;;
72358;SDS011;60317;48.880;-0.862;2022-07-10T10:35:15;1.63;;;1.17;;
72358;SDS011;60317;48.880;-0.862;2022-07-10T10:38:09;3.25;;;1.40;;
72358;SDS011;60317;48.880;-0.862;2022-07-10T10:40:36;7.57;;;1.33;;
72358;SDS011;60317;48.880;-0.862;2022-07-10T10:45:43;1.42;;;1.00;;
72358;SDS011;60317;48.880;-0.862;2022-07-10T10:48:11;1.75;;;1.40;;
72358;SDS011;60317;48.880;-0.862;2022-07-10T10:50:59;2.92;;;1.05;;
72358;SDS011;60317;48.880;-0.862;2022-07-10T10:53:26;2.50;;;1.15;;
72358;SDS011;60317;48.880;-0.862;2022-07-10T10:58:47;1.98;;;1.15;;
72358;SDS011;60317;48.880;-0.862;2022-07-10T11:01:23;1.20;;;1.10;;
72358;SDS011;60317;48.880;-0.862;2022-07-10T11:06:42;3.85;;;1.15;;
72358;SDS011;60317;48.880;-0.862;2022-07-10T11:14:36;1.20;;;1.10;;
72358;SDS011;60317;48.880;-0.862;2022-07-10T11:17:03;3.10;;;1.27;;
72358;SDS011;60317;48.880;-0.862;2022-07-10T11:19:31;2.25;;;1.25;;
72358;SDS011;60317;48.880;-0.862;2022-07-10T11:22:03;2.17;;;1.30;;
72358;SDS011;60317;48.880;-0.862;2022-07-10T11:24:49;2.38;;;1.10;;
72358;SDS011;60317;48.880;-0.862;2022-07-10T11:27:29;1.63;;;1.10;;
72358;SDS011;60317;48.880;-0.862;2022-07-10T11:30:09;2.45;;;1.30;;
72358;SDS011;60317;48.880;-0.862;2022-07-10T11:32:35;2.30;;;1.50;;
72358;SDS011;60317;48.880;-0.862;2022-07-10T11:35:02;1.30;;;1.20;;
72358;SDS011;60317;48.880;-0.862;2022-07-10T11:37:32;0.90;;;0.90;;
72358;SDS011;60317;48.880;-0.862;2022-07-10T11:42:51;1.73;;;1.20;;
72358;SDS011;60317;48.880;-0.862;2022-07-10T11:47:58;2.70;;;1.30;;
72358;SDS011;60317;48.880;-0.862;2022-07-10T11:50:26;3.20;;;1.10;;
72358;SDS011;60317;48.880;-0.862;2022-07-10T11:52:53;3.20;;;1.23;;
72358;SDS011;60317;48.880;-0.862;2022-07-10T11:55:21;1.40;;;1.17;;
72358;SDS011;60317;48.880;-0.862;2022-07-10T11:57:49;1.65;;;1.17;;
72358;SDS011;60317;48.880;-0.862;2022-07-10T12:00:23;2.45;;;1.40;;
72358;SDS011;60317;48.880;-0.862;2022-07-10T12:02:53;1.80;;;0.95;;
72358;SDS011;60317;48.880;-0.862;2022-07-10T12:08:03;1.17;;;0.95;;
72358;SDS011;60317;48.880;-0.862;2022-07-10T12:10:31;1.95;;;1.00;;
72358;SDS011;60317;48.880;-0.862;2022-07-10T12:13:03;2.15;;;1.10;;
72358;SDS011;60317;48.880;-0.862;2022-07-10T12:15:32;3.90;;;1.05;;
72358;SDS011;60317;48.880;-0.862;2022-07-10T12:18:01;1.73;;;1.02;;
72358;SDS011;60317;48.880;-0.862;2022-07-10T12:20:28;1.75;;;1.02;;
72358;SDS011;60317;48.880;-0.862;2022-07-10T12:22:54;2.88;;;1.23;;
72358;SDS011;60317;48.880;-0.862;2022-07-10T12:25:21;2.00;;;1.00;;
72358;SDS011;60317;48.880;-0.862;2022-07-10T12:27:48;1.60;;;1.17;;
72358;SDS011;60317;48.880;-0.862;2022-07-10T12:30:18;2.53;;;1.20;;
72358;SDS011;60317;48.880;-0.862;2022-07-10T12:32:45;2.65;;;1.20;;
72358;SDS011;60317;48.880;-0.862;2022-07-10T12:35:12;1.67;;;1.30;;
72358;SDS011;60317;48.880;-0.862;2022-07-10T12:37:46;2.90;;;1.20;;
72358;SDS011;60317;48.880;-0.862;2022-07-10T12:43:00;2.85;;;1.10;;
72358;SDS011;60317;48.880;-0.862;2022-07-10T12:45:27;2.88;;;1.40;;
72358;SDS011;60317;48.880;-0.862;2022-07-10T12:47:54;3.05;;;1.00;;
72358;SDS011;60317;48.880;-0.862;2022-07-10T12:50:22;1.80;;;1.38;;
72358;SDS011;60317;48.880;-0.862;2022-07-10T12:52:49;3.35;;;1.20;;
72358;SDS011;60317;48.880;-0.862;2022-07-10T12:55:34;4.93;;;1.10;;
72358;SDS011;60317;48.880;-0.862;2022-07-10T12:58:04;1.90;;;1.10;;
72358;SDS011;60317;48.880;-0.862;2022-07-10T13:00:32;2.80;;;1.30;;
72358;SDS011;60317;48.880;-0.862;2022-07-10T13:03:01;5.00;;;1.17;;
72358;SDS011;60317;48.880;-0.862;2022-07-10T13:05:32;2.05;;;1.20;;
72358;SDS011;60317;48.880;-0.862;2022-07-10T13:08:07;2.83;;;1.10;;
72358;SDS011;60317;48.880;-0.862;2022-07-10T13:10:35;3.65;;;1.15;;
72358;SDS011;60317;48.880;-0.862;2022-07-10T13:13:02;1.42;;;1.08;;
72358;SDS011;60317;48.880;-0.862;2022-07-10T13:15:29;3.53;;;1.20;;
72358;SDS011;60317;48.880;-0.862;2022-07-10T13:17:55;5.65;;;1.35;;
72358;SDS011;60317;48.880;-0.862;2022-07-10T13:20:22;2.00;;;1.52;;
72358;SDS011;60317;48.880;-0.862;2022-07-10T13:22:50;3.83;;;1.05;;
72358;SDS011;60317;48.880;-0.862;2022-07-10T13:25:17;3.70;;;1.23;;
72358;SDS011;60317;48.880;-0.862;2022-07-10T13:27:43;2.25;;;1.17;;
72358;SDS011;60317;48.880;-0.862;2022-07-10T13:30:10;2.65;;;1.42;;
72358;SDS011;60317;48.880;-0.862;2022-07-10T13:32:36;1.95;;;1.10;;
72358;SDS011;60317;48.880;-0.862;2022-07-10T13:35:03;1.60;;;1.00;;
72358;SDS011;60317;48.880;-0.862;2022-07-10T13:37:30;2.83;;;0.90;;
72358;SDS011;60317;48.880;-0.862;2022-07-10T13:39:57;2.63;;;1.15;;
72358;SDS011;60317;48.880;-0.862;2022-07-10T13:42:24;1.52;;;1.10;;
72358;SDS011;60317;48.880;-0.862;2022-07-10T13:44:50;1.98;;;1.13;;
72358;SDS011;60317;48.880;-0.862;2022-07-10T13:47:17;3.33;;;1.10;;
72358;SDS011;60317;48.880;-0.862;2022-07-10T13:49:44;1.80;;;1.13;;
72358;SDS011;60317;48.880;-0.862;2022-07-10T13:52:10;1.88;;;1.10;;
72358;SDS011;60317;48.880;-0.862;2022-07-10T13:54:37;3.58;;;0.95;;
72358;SDS011;60317;48.880;-0.862;2022-07-10T13:57:05;1.10;;;1.00;;
72358;SDS011;60317;48.880;-0.862;2022-07-10T13:59:31;3.53;;;1.30;;
72358;SDS011;60317;48.880;-0.862;2022-07-10T14:01:58;2.50;;;0.98;;
72358;SDS011;60317;48.880;-0.862;2022-07-10T14:04:24;2.92;;;1.17;;
72358;SDS011;60317;48.880;-0.862;2022-07-10T14:06:51;2.00;;;0.85;;
72358;SDS011;60317;48.880;-0.862;2022-07-10T14:09:17;2.17;;;1.10;;
72358;SDS011;60317;48.880;-0.862;2022-07-10T14:11:44;1.20;;;0.90;;
72358;SDS011;60317;48.880;-0.862;2022-07-10T14:14:12;2.58;;;1.40;;
72358;SDS011;60317;48.880;-0.862;2022-07-10T14:16:38;1.67;;;0.90;;
72358;SDS011;60317;48.880;-0.862;2022-07-10T14:19:05;2.83;;;1.42;;
72358;SDS011;60317;48.880;-0.862;2022-07-10T14:21:37;3.53;;;1.20;;
72358;SDS011;60317;48.880;-0.862;2022-07-10T14:24:06;2.97;;;1.02;;
72358;SDS011;60317;48.880;-0.862;2022-07-10T14:26:32;1.23;;;0.98;;
72358;SDS011;60317;48.880;-0.862;2022-07-10T14:28:59;2.42;;;1.05;;
72358;SDS011;60317;48.880;-0.862;2022-07-10T14:31:27;3.72;;;1.40;;
72358;SDS011;60317;48.880;-0.862;2022-07-10T14:33:54;4.22;;;1.13;;
72358;SDS011;60317;48.880;-0.862;2022-07-10T14:36:20;2.40;;;1.20;;
72358;SDS011;60317;48.880;-0.862;2022-07-10T14:38:47;2.35;;;1.20;;
72358;SDS011;60317;48.880;-0.862;2022-07-10T14:41:13;2.17;;;0.98;;
72358;SDS011;60317;48.880;-0.862;2022-07-10T14:43:40;1.75;;;1.35;;
72358;SDS011;60317;48.880;-0.862;2022-07-10T14:46:07;1.70;;;1.05;;
72358;SDS011;60317;48.880;-0.862;2022-07-10T14:48:35;3.03;;;1.20;;
72358;SDS011;60317;48.880;-0.862;2022-07-10T14:51:02;2.10;;;1.02;;
72358;SDS011;60317;48.880;-0.862;2022-07-10T14:53:28;3.78;;;1.30;;
72358;SDS011;60317;48.880;-0.862;2022-07-10T14:55:55;2.03;;;0.90;;
72358;SDS011;60317;48.880;-0.862;2022-07-10T14:58:22;3.97;;;1.10;;
72358;SDS011;60317;48.880;-0.862;2022-07-10T15:00:48;3.05;;;1.20;;
72358;SDS011;60317;48.880;-0.862;2022-07-10T15:03:15;3.55;;;1.25;;